Time;durP1;ratioP1;P1;durP2;ratioP2;P2;SDS_P1;SDS_P2;PMS_P1;PMS_P2;Temp;Humidity;BMP_temperature;BMP_pressure;BME280_temperature;BME280_humidity;BME280_pressure;Samples;Min_cycle;Max_cycle;Signal;HPM_P1;HPM_P2
2023/12/26 00:01:35;;;;;;;65.85;44.28;;;;;;;14.13;83.87;101666.41;143725;561;46010;-70
2023/12/26 00:04:01;;;;;;;63.47;44.22;;;;;;;14.20;82.39;101667.31;143724;613;47003;-69
2023/12/26 00:06:28;;;;;;;63.90;44.72;;;;;;;14.17;83.30;101671.25;143720;622;47008;-70
2023/12/26 00:08:54;;;;;;;57.20;41.50;;;;;;;14.13;83.26;101669.97;143724;576;47004;-70
2023/12/26 00:11:21;;;;;;;57.13;41.75;;;;;;;14.13;83.27;101671.81;143723;577;47011;-70
2023/12/26 00:13:47;;;;;;;59.10;42.03;;;;;;;14.12;83.83;101681.81;143722;605;47004;-70
2023/12/26 00:16:13;;;;;;;57.33;42.35;;;;;;;14.07;83.72;101677.00;143725;584;47006;-69
2023/12/26 00:18:40;;;;;;;75.60;49.45;;;;;;;14.06;83.61;101674.47;143726;590;47002;-70
2023/12/26 00:21:07;;;;;;;73.28;49.42;;;;;;;13.96;83.66;101680.22;143722;573;47008;-70
2023/12/26 00:23:34;;;;;;;85.90;53.90;;;;;;;13.97;83.36;101672.97;143723;637;47004;-70
2023/12/26 00:26:00;;;;;;;84.00;54.45;;;;;;;13.97;84.47;101678.38;143724;638;47006;-70
2023/12/26 00:28:26;;;;;;;88.32;57.05;;;;;;;13.92;84.54;101687.91;143724;577;47002;-70
2023/12/26 00:30:52;;;;;;;98.53;60.78;;;;;;;13.93;85.66;101678.78;143723;661;47010;-70
2023/12/26 00:33:19;;;;;;;93.30;58.97;;;;;;;13.95;86.05;101678.56;143723;581;47004;-70
2023/12/26 00:35:45;;;;;;;89.55;55.63;;;;;;;13.91;85.41;101688.94;143724;595;47006;-70
2023/12/26 00:38:12;;;;;;;89.95;57.08;;;;;;;13.86;85.41;101677.87;143725;594;47004;-70
2023/12/26 00:40:41;;;;;;;86.97;56.00;;;;;;;13.82;86.08;101682.03;143725;589;47009;-70
2023/12/26 00:43:08;;;;;;;86.32;53.15;;;;;;;13.84;86.32;101687.22;143723;597;47004;-70
2023/12/26 00:45:35;;;;;;;90.78;54.38;;;;;;;13.79;86.05;101679.72;143721;589;47006;-70
2023/12/26 00:48:01;;;;;;;79.03;52.72;;;;;;;13.74;86.47;101676.75;143724;613;47002;-70
2023/12/26 00:50:27;;;;;;;78.20;51.35;;;;;;;13.74;86.79;101680.31;143726;582;47008;-70
2023/12/26 00:52:54;;;;;;;80.05;53.22;;;;;;;13.76;86.59;101685.50;143723;659;47004;-70
2023/12/26 00:55:20;;;;;;;77.62;49.92;;;;;;;13.68;86.78;101691.88;143723;618;47007;-70
2023/12/26 00:57:47;;;;;;;77.87;50.83;;;;;;;13.59;87.04;101687.66;143724;597;47002;-70
2023/12/26 01:00:14;;;;;;;76.47;50.42;;;;;;;13.57;87.49;101693.25;143724;619;47008;-70
2023/12/26 01:02:40;;;;;;;77.55;51.50;;;;;;;13.59;87.99;101690.38;143721;642;47004;-70
2023/12/26 01:05:07;;;;;;;71.45;49.38;;;;;;;13.56;87.89;101690.75;143723;598;47006;-70
2023/12/26 01:07:34;;;;;;;75.82;49.22;;;;;;;13.52;88.57;101692.97;143724;627;47002;-70
2023/12/26 01:10:04;;;;;;;70.87;49.33;;;;;;;13.52;89.23;101695.69;143724;596;47009;-70
2023/12/26 01:12:31;;;;;;;77.12;50.10;;;;;;;13.40;89.87;101695.41;143722;704;47004;-70
2023/12/26 01:14:57;;;;;;;73.30;49.90;;;;;;;13.42;89.68;101687.09;143728;588;46006;-70
2023/12/26 01:17:23;;;;;;;71.95;49.33;;;;;;;13.45;89.95;101692.09;143718;699;47017;-70
2023/12/26 01:19:50;;;;;;;76.82;49.78;;;;;;;13.49;89.33;101690.69;143724;603;47008;-68
2023/12/26 01:22:16;;;;;;;76.97;49.92;;;;;;;13.46;89.71;101691.91;143720;582;47004;-70
2023/12/26 01:24:43;;;;;;;70.12;47.88;;;;;;;13.46;89.54;101696.47;143725;581;47006;-69
2023/12/26 01:27:09;;;;;;;73.65;48.00;;;;;;;13.49;89.73;101699.62;143724;625;47002;-69
2023/12/26 01:29:36;;;;;;;63.60;44.42;;;;;;;13.48;89.65;101695.25;143721;622;47008;-70
2023/12/26 01:32:02;;;;;;;66.15;42.95;;;;;;;13.48;90.50;101692.53;143723;675;47005;-71
2023/12/26 01:34:28;;;;;;;68.28;41.15;;;;;;;13.49;91.21;101691.53;143725;634;46008;-69
2023/12/26 01:36:55;;;;;;;58.95;40.95;;;;;;;13.49;90.71;101696.91;143723;585;47008;-70
2023/12/26 01:39:21;;;;;;;62.92;41.22;;;;;;;13.44;91.58;101693.94;143722;615;46010;-69
2023/12/26 01:41:48;;;;;;;60.75;40.30;;;;;;;13.43;92.64;101710.34;143720;630;47004;-70
2023/12/26 01:44:14;;;;;;;59.30;40.53;;;;;;;13.46;92.92;101702.69;143721;650;47006;-70
2023/12/26 01:46:41;;;;;;;58.95;38.78;;;;;;;13.43;93.03;101696.84;143722;583;47002;-69
2023/12/26 01:49:08;;;;;;;58.10;37.63;;;;;;;13.39;93.05;101692.84;143723;622;47011;-70
2023/12/26 01:51:35;;;;;;;50.20;35.50;;;;;;;13.37;93.43;101693.03;143721;579;47002;-70
2023/12/26 01:54:02;;;;;;;54.42;36.50;;;;;;;13.34;93.79;101694.25;143722;614;47006;-70
2023/12/26 01:56:29;;;;;;;50.45;34.42;;;;;;;13.28;94.23;101689.62;143722;612;47002;-71
2023/12/26 01:58:56;;;;;;;50.65;32.90;;;;;;;13.30;94.86;101693.00;143723;680;47008;-70
2023/12/26 04:01:51;;;;;;;19.08;11.15;;;;;;;12.78;100.00;101721.03;143729;681;47004;-70
2023/12/26 04:04:17;;;;;;;17.90;10.85;;;;;;;12.70;100.00;101732.75;143722;569;47006;-71
2023/12/26 04:06:44;;;;;;;17.37;12.52;;;;;;;12.68;100.00;101732.94;143723;667;47002;-70
2023/12/26 04:09:11;;;;;;;17.52;11.07;;;;;;;12.68;100.00;101741.03;143725;573;46009;-70
2023/12/26 04:11:38;;;;;;;16.67;10.55;;;;;;;12.67;100.00;101738.53;143721;591;47004;-71
2023/12/26 04:14:04;;;;;;;17.80;10.93;;;;;;;12.68;100.00;101737.50;143723;576;47006;-70
2023/12/26 04:16:31;;;;;;;19.12;11.50;;;;;;;12.67;100.00;101750.12;143720;657;47004;-70
2023/12/26 04:18:57;;;;;;;16.00;11.40;;;;;;;12.67;100.00;101754.69;143720;663;47010;-70
2023/12/26 04:21:23;;;;;;;16.10;11.02;;;;;;;12.70;100.00;101754.31;143719;589;48002;-70
2023/12/26 04:23:50;;;;;;;21.25;11.00;;;;;;;12.72;100.00;101766.59;143720;609;47007;-71
2023/12/26 04:26:16;;;;;;;15.77;11.25;;;;;;;12.71;100.00;101762.22;143725;625;47002;-69
2023/12/26 04:28:43;;;;;;;23.42;11.00;;;;;;;12.72;100.00;101763.88;143717;650;47010;-70
2023/12/26 04:31:09;;;;;;;15.60;11.35;;;;;;;12.74;100.00;101763.69;143721;589;47004;-69
2023/12/26 04:33:35;;;;;;;15.43;10.48;;;;;;;12.74;100.00;101767.25;143720;650;47006;-70
2023/12/26 04:36:02;;;;;;;15.88;10.68;;;;;;;12.73;100.00;101764.72;143722;577;47004;-70
2023/12/26 04:38:28;;;;;;;14.20;9.50;;;;;;;12.77;100.00;101768.72;143723;607;47008;-69
2023/12/26 04:40:54;;;;;;;17.50;10.05;;;;;;;12.73;100.00;101779.03;143720;618;47004;-70
2023/12/26 04:43:21;;;;;;;13.52;8.90;;;;;;;12.72;100.00;101773.81;143721;601;47006;-70
2023/12/26 04:45:47;;;;;;;13.77;8.70;;;;;;;12.72;100.00;101785.44;143724;617;47004;-70
2023/12/26 04:48:14;;;;;;;18.33;9.18;;;;;;;12.67;100.00;101781.66;143722;577;47004;-70
2023/12/26 04:50:40;;;;;;;15.95;10.90;;;;;;;12.67;100.00;101778.94;143719;574;47004;-70
2023/12/26 04:53:07;;;;;;;15.75;10.48;;;;;;;12.69;100.00;101790.38;143721;669;47007;-69
2023/12/26 04:55:33;;;;;;;17.27;10.73;;;;;;;12.70;100.00;101781.28;143722;635;47004;-71
2023/12/26 04:57:59;;;;;;;17.65;10.77;;;;;;;12.66;100.00;101788.88;143720;676;48918;-69
2023/12/26 05:00:26;;;;;;;19.58;10.93;;;;;;;12.69;100.00;101793.91;143722;629;47004;-70
2023/12/26 05:02:52;;;;;;;21.73;12.63;;;;;;;12.67;100.00;101795.94;143722;623;47006;-69
2023/12/26 05:05:18;;;;;;;23.62;13.77;;;;;;;12.66;100.00;101799.66;143723;641;47004;-70
2023/12/26 05:07:44;;;;;;;23.17;11.98;;;;;;;12.67;100.00;101792.44;143720;567;47919;-70
2023/12/26 05:10:11;;;;;;;16.33;11.40;;;;;;;12.65;100.00;101799.87;143720;598;47004;-70
2023/12/26 05:12:37;;;;;;;17.95;10.55;;;;;;;12.62;100.00;101800.22;143724;567;46006;-70
2023/12/26 05:15:04;;;;;;;20.12;10.23;;;;;;;12.57;100.00;101795.41;143724;658;47002;-71
2023/12/26 05:17:30;;;;;;;15.32;10.15;;;;;;;12.55;100.00;101798.25;143713;640;47994;-70
2023/12/26 05:19:56;;;;;;;17.30;10.40;;;;;;;12.52;100.00;101804.06;143721;671;47004;-70
2023/12/26 05:22:23;;;;;;;17.25;10.88;;;;;;;12.50;100.00;101802.53;143723;570;47006;-70
2023/12/26 05:24:50;;;;;;;23.40;14.77;;;;;;;12.52;100.00;101809.44;143723;591;47002;-70
2023/12/26 05:27:17;;;;;;;19.62;13.15;;;;;;;12.50;100.00;101803.41;143725;566;46010;-70
2023/12/26 05:29:44;;;;;;;20.42;13.65;;;;;;;12.42;100.00;101812.41;143721;629;47005;-70
2023/12/26 05:32:10;;;;;;;17.95;10.98;;;;;;;12.39;100.00;101815.47;143722;619;47005;-69
2023/12/26 05:34:37;;;;;;;19.37;11.90;;;;;;;12.42;100.00;101817.78;143724;631;47002;-69
2023/12/26 05:37:03;;;;;;;19.02;12.13;;;;;;;12.47;100.00;101821.75;143722;681;47008;-70
2023/12/26 05:39:30;;;;;;;18.92;11.85;;;;;;;12.50;100.00;101816.87;143722;683;47006;-70
2023/12/26 05:41:56;;;;;;;18.10;11.70;;;;;;;12.51;100.00;101823.94;143722;620;47008;-71
2023/12/26 05:44:22;;;;;;;17.62;11.12;;;;;;;12.49;100.00;101822.41;143723;573;47005;-70
2023/12/26 05:46:49;;;;;;;16.15;11.88;;;;;;;12.46;100.00;101822.78;143720;651;47013;-70
2023/12/26 05:49:15;;;;;;;25.40;12.30;;;;;;;12.42;100.00;101831.25;143723;640;47006;-70
2023/12/26 05:51:41;;;;;;;18.17;11.98;;;;;;;12.42;100.00;101843.87;143719;567;49002;-70
2023/12/26 05:54:08;;;;;;;17.80;11.25;;;;;;;12.41;100.00;101839.50;143725;572;47004;-70
2023/12/26 05:56:34;;;;;;;20.00;12.00;;;;;;;12.39;100.00;101842.41;143723;576;47012;-70
2023/12/26 05:59:01;;;;;;;14.07;10.65;;;;;;;12.44;100.00;101848.06;143722;649;47006;-69
2023/12/26 06:01:27;;;;;;;16.58;11.18;;;;;;;12.46;100.00;101852.44;143724;575;47008;-70
2023/12/26 06:03:54;;;;;;;18.87;10.98;;;;;;;12.44;100.00;101855.31;143722;635;47004;-70
2023/12/26 06:06:21;;;;;;;18.05;11.05;;;;;;;12.38;100.00;101854.19;143721;617;46021;-70
2023/12/26 06:08:49;;;;;;;21.77;12.23;;;;;;;12.41;100.00;101856.53;143722;570;47004;-71
2023/12/26 06:11:15;;;;;;;15.55;12.57;;;;;;;12.38;100.00;101856.87;143721;582;47008;-70
2023/12/26 06:13:41;;;;;;;17.02;12.43;;;;;;;12.41;100.00;101859.22;143726;613;47002;-70
2023/12/26 06:16:08;;;;;;;21.85;13.32;;;;;;;12.40;100.00;101856.69;143723;572;47010;-69
2023/12/26 06:18:34;;;;;;;23.23;13.90;;;;;;;12.47;100.00;101864.88;143719;647;47006;-70
2023/12/26 06:21:00;;;;;;;22.17;14.48;;;;;;;12.50;100.00;101869.91;143721;574;47008;-70
2023/12/26 06:23:27;;;;;;;20.83;12.80;;;;;;;12.55;100.00;101868.34;143722;569;47004;-69
2023/12/26 06:25:56;;;;;;;20.95;12.35;;;;;;;12.60;100.00;101878.59;143721;591;47012;-70
2023/12/26 06:28:22;;;;;;;17.23;11.82;;;;;;;12.58;100.00;101876.06;143720;569;47006;-70
2023/12/26 06:30:49;;;;;;;27.13;17.75;;;;;;;12.61;100.00;101880.25;143719;646;47009;-70
2023/12/26 06:33:15;;;;;;;30.17;15.38;;;;;;;12.64;100.00;101887.94;143722;588;47004;-69
2023/12/26 06:35:41;;;;;;;25.62;15.18;;;;;;;12.63;100.00;101888.16;143720;649;47010;-70
2023/12/26 06:38:12;;;;;;;23.48;16.10;;;;;;;12.66;100.00;101883.22;143720;657;47006;-70
2023/12/26 06:40:43;;;;;;;23.05;15.95;;;;;;;12.69;100.00;101896.34;143721;664;47008;-70
2023/12/26 06:43:15;;;;;;;25.62;14.65;;;;;;;12.70;100.00;101889.09;143725;587;47004;-69
2023/12/26 06:45:42;;;;;;;38.15;17.98;;;;;;;12.75;100.00;101894.75;143720;583;47013;-69
2023/12/26 06:48:08;;;;;;;53.15;33.50;;;;;;;12.77;100.00;101889.19;143720;569;47006;-69
2023/12/26 06:50:34;;;;;;;43.92;26.42;;;;;;;12.77;100.00;101891.91;143723;594;47008;-70
2023/12/26 06:53:01;;;;;;;39.13;27.87;;;;;;;12.82;100.00;101901.09;143722;587;47006;-69
2023/12/26 06:55:27;;;;;;;34.95;22.20;;;;;;;12.87;100.00;101896.00;143723;568;47010;-69
2023/12/26 06:57:53;;;;;;;31.87;20.65;;;;;;;12.86;100.00;101894.31;143721;566;47006;-70
2023/12/26 07:00:20;;;;;;;26.33;19.10;;;;;;;12.91;100.00;101901.00;143720;611;47009;-69
2023/12/26 07:02:46;;;;;;;27.27;18.30;;;;;;;12.93;100.00;101897.13;143727;579;46008;-69
2023/12/26 07:05:13;;;;;;;25.35;17.85;;;;;;;13.04;100.00;101901.22;143722;594;47010;-69
2023/12/26 07:07:39;;;;;;;29.75;19.33;;;;;;;13.16;100.00;101896.16;143721;686;47006;-69
2023/12/26 07:10:06;;;;;;;29.77;19.58;;;;;;;13.23;100.00;101902.50;143722;591;47008;-70
2023/12/26 07:12:33;;;;;;;29.52;19.37;;;;;;;13.29;100.00;101900.91;143723;568;47006;-70
2023/12/26 07:14:59;;;;;;;24.63;18.45;;;;;;;13.40;100.00;101916.69;143723;644;46012;-70
2023/12/26 07:17:26;;;;;;;33.40;17.40;;;;;;;13.48;100.00;101919.25;143721;619;47006;-69
2023/12/26 07:19:52;;;;;;;23.45;15.13;;;;;;;13.53;100.00;101915.97;143722;642;47008;-69
2023/12/26 07:22:18;;;;;;;20.55;15.77;;;;;;;13.63;100.00;101912.97;143720;619;47006;-69
2023/12/26 07:24:44;;;;;;;25.37;17.02;;;;;;;13.72;100.00;101909.16;143722;583;47010;-69
2023/12/26 07:27:11;;;;;;;22.15;16.83;;;;;;;13.74;100.00;101908.97;143721;658;47006;-70
2023/12/26 07:29:37;;;;;;;29.27;17.23;;;;;;;13.83;100.00;101907.84;143724;575;47009;-70
2023/12/26 07:32:05;;;;;;;20.90;16.65;;;;;;;13.98;100.00;101909.62;143723;574;47004;-69
2023/12/26 07:34:31;;;;;;;23.17;16.75;;;;;;;14.05;100.00;101910.53;143722;598;47010;-69
2023/12/26 07:36:57;;;;;;;23.17;16.30;;;;;;;14.12;100.00;101911.44;143719;643;49006;-69
2023/12/26 07:39:26;;;;;;;22.92;15.88;;;;;;;14.22;100.00;101911.13;143723;590;47008;-69
2023/12/26 07:41:52;;;;;;;21.95;15.25;;;;;;;14.33;100.00;101910.59;143725;574;47004;-69
2023/12/26 07:44:19;;;;;;;19.62;15.23;;;;;;;14.49;100.00;101914.03;143722;585;47011;-69
2023/12/26 07:46:45;;;;;;;20.77;15.48;;;;;;;14.56;100.00;101915.75;143721;609;47006;-69
2023/12/26 07:49:11;;;;;;;26.87;16.95;;;;;;;14.67;100.00;101911.69;143724;576;47008;-69
2023/12/26 07:51:38;;;;;;;19.08;13.55;;;;;;;14.88;100.00;101917.28;143721;577;47006;-69
2023/12/26 07:54:05;;;;;;;17.42;14.00;;;;;;;15.00;100.00;101926.53;143719;609;47010;-70
2023/12/26 07:56:31;;;;;;;16.23;13.45;;;;;;;15.18;100.00;101930.59;143721;598;47006;-69
2023/12/26 07:58:58;;;;;;;20.17;14.82;;;;;;;15.23;100.00;101931.66;143724;567;47009;-69
2023/12/26 08:01:26;;;;;;;22.92;15.90;;;;;;;15.36;100.00;101932.75;143725;567;47004;-69
2023/12/26 08:03:53;;;;;;;18.83;10.90;;;;;;;15.42;100.00;101927.38;143722;580;47012;-68
2023/12/26 08:06:20;;;;;;;12.23;10.02;;;;;;;15.54;100.00;101933.03;143721;595;47007;-68
2023/12/26 08:08:47;;;;;;;14.13;9.02;;;;;;;15.74;100.00;101932.28;143722;605;47008;-68
2023/12/26 08:11:13;;;;;;;13.45;9.40;;;;;;;15.90;100.00;101929.22;143724;631;47006;-70
2023/12/26 08:13:39;;;;;;;14.75;10.55;;;;;;;16.14;99.80;101929.72;143723;581;47010;-68
2023/12/26 08:16:06;;;;;;;13.68;9.57;;;;;;;16.32;97.89;101933.69;143721;627;47006;-68
2023/12/26 08:18:33;;;;;;;18.30;11.65;;;;;;;16.47;97.41;101922.66;143724;584;47008;-68
2023/12/26 08:21:00;;;;;;;20.62;14.10;;;;;;;16.61;97.57;101929.75;143723;656;47004;-69
2023/12/26 08:23:27;;;;;;;28.70;17.12;;;;;;;16.65;98.59;101922.88;143723;665;47013;-69
2023/12/26 08:25:53;;;;;;;24.27;18.23;;;;;;;16.76;97.82;101926.81;143721;592;47006;-68
2023/12/26 08:28:19;;;;;;;25.60;17.98;;;;;;;16.88;98.33;101931.59;143724;573;47008;-68
2023/12/26 08:30:46;;;;;;;25.67;18.92;;;;;;;16.99;97.91;101933.69;143726;580;46008;-69
2023/12/26 08:33:14;;;;;;;21.35;17.48;;;;;;;17.15;97.76;101927.00;143717;604;48017;-68
2023/12/26 08:35:41;;;;;;;25.40;18.40;;;;;;;17.42;96.15;101933.16;143722;569;47006;-68
2023/12/26 08:38:08;;;;;;;28.00;19.55;;;;;;;17.76;94.81;101935.72;143724;574;47008;-69
2023/12/26 08:40:34;;;;;;;22.70;15.75;;;;;;;18.05;93.06;101933.50;143726;659;46008;-70
2023/12/26 08:43:01;;;;;;;20.17;14.32;;;;;;;18.24;92.16;101925.44;143725;587;46011;-72
2023/12/26 08:45:27;;;;;;;21.33;13.88;;;;;;;18.23;90.93;101932.75;143721;588;47006;-69
2023/12/26 08:47:53;;;;;;;15.90;11.95;;;;;;;18.42;90.12;101928.22;143720;574;48924;-70
2023/12/26 08:50:20;;;;;;;19.23;11.75;;;;;;;18.60;89.08;101930.16;143721;613;48010;-71
2023/12/26 08:52:47;;;;;;;13.75;10.30;;;;;;;18.67;87.61;101921.94;143723;567;47010;-72
2023/12/26 08:55:14;;;;;;;15.57;10.43;;;;;;;18.82;86.95;101923.47;143722;582;47006;-70
2023/12/26 08:57:40;;;;;;;14.32;10.65;;;;;;;19.03;85.89;101925.78;143721;622;47008;-70
2023/12/26 09:00:09;;;;;;;14.40;10.57;;;;;;;19.17;84.58;101922.91;143722;580;47004;-70
2023/12/26 09:02:36;;;;;;;17.83;11.45;;;;;;;19.24;84.63;101929.94;143723;579;47010;-70
2023/12/26 09:05:02;;;;;;;13.38;9.80;;;;;;;19.55;83.91;101930.00;143717;592;49006;-70
2023/12/26 09:07:29;;;;;;;15.80;9.05;;;;;;;21.87;78.40;101931.94;143721;568;47009;-71
2023/12/26 09:09:56;;;;;;;16.50;9.57;;;;;;;28.20;60.14;101926.81;143723;600;47006;-71
2023/12/26 09:12:22;;;;;;;14.63;9.50;;;;;;;31.72;47.15;101914.69;143726;604;46010;-70
2023/12/26 09:14:49;;;;;;;14.07;8.32;;;;;;;33.47;41.02;101901.91;143721;602;47007;-70
2023/12/26 09:17:15;;;;;;;13.38;9.30;;;;;;;33.61;39.34;101912.88;143727;567;46008;-71
2023/12/26 09:19:41;;;;;;;11.90;8.75;;;;;;;33.31;38.69;101887.59;143724;592;47006;-69
2023/12/26 09:22:08;;;;;;;15.45;9.07;;;;;;;32.72;39.15;101886.00;143725;866;47004;-72
2023/12/26 09:24:34;;;;;;;15.70;9.35;;;;;;;32.13;39.73;101884.22;143719;716;47006;-70
2023/12/26 09:27:00;;;;;;;18.05;9.57;;;;;;;31.14;40.18;101886.56;143725;596;47008;-69
2023/12/26 09:29:27;;;;;;;12.60;9.52;;;;;;;30.12;42.00;101884.59;143722;587;47004;-69
2023/12/26 09:31:54;;;;;;;14.68;8.98;;;;;;;29.51;42.38;101865.06;143722;589;47010;-70
2023/12/26 09:34:20;;;;;;;12.23;8.82;;;;;;;28.80;44.54;101873.19;143722;577;47006;-70
2023/12/26 09:36:47;;;;;;;12.18;9.88;;;;;;;28.33;44.39;101876.41;143724;652;47008;-70
2023/12/26 09:39:13;;;;;;;14.63;9.55;;;;;;;28.18;45.67;101874.63;143722;583;47004;-70
2023/12/26 09:41:43;;;;;;;17.92;10.55;;;;;;;28.02;46.20;101871.13;143724;631;47012;-69
2023/12/26 09:44:11;;;;;;;16.15;10.05;;;;;;;27.99;46.66;101867.03;143722;605;47007;-70
2023/12/26 09:46:37;;;;;;;14.32;10.20;;;;;;;27.63;47.68;101860.94;143724;635;47008;-69
2023/12/26 09:49:04;;;;;;;15.18;9.38;;;;;;;27.38;49.05;101860.81;143726;630;47002;-70
2023/12/26 09:51:33;;;;;;;14.98;9.95;;;;;;;27.46;49.33;101855.84;143725;584;47010;-71
2023/12/26 09:54:03;;;;;;;14.57;10.77;;;;;;;27.44;49.89;101855.25;143724;677;47004;-68
2023/12/26 09:56:32;;;;;;;15.48;10.02;;;;;;;27.53;50.15;101850.84;143723;625;47006;-68
2023/12/26 09:59:01;;;;;;;14.18;10.48;;;;;;;27.87;50.42;101847.28;143726;584;47002;-68
2023/12/26 10:01:28;;;;;;;16.77;9.38;;;;;;;27.93;50.20;101845.28;143724;569;47008;-68
2023/12/26 10:03:56;;;;;;;15.15;9.43;;;;;;;28.32;51.02;101849.91;143722;657;47004;-69
2023/12/26 10:06:23;;;;;;;16.42;10.80;;;;;;;28.66;50.60;101848.16;143724;611;47007;-69
2023/12/26 10:08:49;;;;;;;14.85;10.43;;;;;;;29.06;50.11;101848.78;143725;582;47002;-71
2023/12/26 10:11:15;;;;;;;13.70;9.43;;;;;;;29.67;51.57;101842.69;143724;567;47008;-71
2023/12/26 10:13:49;;;;;;;9.80;6.18;;;;;;;30.36;49.06;101842.03;143716;609;47004;-70
2023/12/26 10:16:16;;;;;;;10.07;6.85;;;;;;;31.20;47.89;101839.25;143726;586;47006;-70
2023/12/26 10:18:43;;;;;;;13.00;6.55;;;;;;;32.62;45.33;101837.06;143724;606;47002;-72
2023/12/26 10:21:09;;;;;;;9.38;6.60;;;;;;;34.89;42.73;101829.47;143721;573;47010;-71
2023/12/26 10:23:36;;;;;;;11.52;8.20;;;;;;;36.98;39.79;101823.94;143723;583;47004;-70
2023/12/26 10:26:03;;;;;;;11.95;7.65;;;;;;;39.12;36.64;101820.94;143725;579;46006;-70
2023/12/26 10:28:38;;;;;;;8.95;5.90;;;;;;;40.28;34.09;101817.47;143728;641;46004;-70
2023/12/26 10:31:15;;;;;;;14.40;6.97;;;;;;;40.98;32.65;101809.59;143727;631;46008;-70
2023/12/26 10:33:42;;;;;;;12.05;7.15;;;;;;;38.89;33.33;101802.03;143726;590;46008;-69
2023/12/26 10:36:12;;;;;;;12.57;7.07;;;;;;;35.05;36.70;101800.97;143723;611;46008;-71
2023/12/26 10:38:39;;;;;;;11.85;7.00;;;;;;;32.31;39.45;101810.94;143727;599;47002;-76
2023/12/26 10:41:10;;;;;;;11.35;7.55;;;;;;;30.98;42.31;101796.41;143725;584;47010;-71
2023/12/26 10:43:40;;;;;;;17.35;7.78;;;;;;;29.74;43.92;101794.09;143722;586;46010;-64
2023/12/26 10:46:08;;;;;;;14.23;8.20;;;;;;;29.27;45.40;101795.94;143724;603;46006;-65
2023/12/26 10:48:35;;;;;;;12.32;7.75;;;;;;;29.28;46.37;101789.28;143713;574;50000;-66
2023/12/26 10:51:03;;;;;;;11.73;7.72;;;;;;;29.45;46.15;101784.06;143725;567;46010;-67
2023/12/26 10:53:43;;;;;;;9.40;7.05;;;;;;;29.86;45.72;101790.00;143723;697;47004;-65
2023/12/26 10:56:12;;;;;;;11.18;7.90;;;;;;;30.01;45.14;101775.91;143728;572;46008;-67
2023/12/26 10:58:41;;;;;;;10.65;7.30;;;;;;;29.97;45.66;101772.13;143727;588;46027;-62
2023/12/26 11:01:09;;;;;;;12.80;7.62;;;;;;;29.79;46.21;101773.78;143726;620;46012;-65
2023/12/26 13:51:27;;;;;;;10.27;4.07;;;;;;;21.84;69.99;101669.03;143736;595;47000;-66
2023/12/26 13:53:53;;;;;;;8.98;4.35;;;;;;;21.69;70.95;101672.38;143733;579;47008;-66
2023/12/26 13:56:20;;;;;;;10.80;4.65;;;;;;;21.55;72.34;101666.41;143730;573;47004;-67
2023/12/26 13:58:46;;;;;;;11.07;4.68;;;;;;;21.47;73.03;101676.66;143732;583;46006;-67
2023/12/26 14:01:17;;;;;;;11.18;5.30;;;;;;;21.45;74.01;101669.78;143733;591;47004;-67
2023/12/26 14:03:50;;;;;;;10.82;5.78;;;;;;;21.34;76.04;101672.38;143732;592;47008;-66
2023/12/26 14:06:20;;;;;;;10.52;4.95;;;;;;;21.20;78.04;101671.84;143730;600;47004;-66
2023/12/26 14:08:49;;;;;;;10.05;4.97;;;;;;;21.26;79.20;101661.03;143733;591;46006;-67
2023/12/26 14:11:17;;;;;;;11.35;4.90;;;;;;;21.20;80.80;101662.81;143731;583;47002;-66
2023/12/26 14:13:43;;;;;;;9.30;5.25;;;;;;;21.00;83.84;101663.31;143725;575;48008;-66
2023/12/26 14:16:09;;;;;;;10.57;5.03;;;;;;;20.99;85.85;101673.41;143729;653;47004;-66
2023/12/26 14:18:36;;;;;;;12.90;5.30;;;;;;;20.98;88.13;101666.28;143729;643;47007;-67
2023/12/26 14:21:03;;;;;;;12.20;5.25;;;;;;;20.99;89.45;101670.69;143731;573;47004;-67
2023/12/26 14:23:29;;;;;;;7.82;4.65;;;;;;;20.95;89.66;101672.25;143730;890;47008;-66
2023/12/26 14:25:56;;;;;;;11.85;5.55;;;;;;;20.84;92.96;101671.22;143727;982;47004;-65
2023/12/26 14:28:22;;;;;;;12.50;5.78;;;;;;;20.83;94.56;101661.38;143729;839;47006;-66
2023/12/26 14:30:49;;;;;;;11.02;5.20;;;;;;;20.79;96.11;101662.91;143729;603;47004;-66
2023/12/26 14:33:19;;;;;;;8.20;4.45;;;;;;;20.75;98.40;101667.16;143729;573;47010;-66
2023/12/26 14:35:50;;;;;;;10.35;4.80;;;;;;;20.75;99.10;101664.44;143729;594;47004;-66
2023/12/26 14:38:17;;;;;;;12.15;5.97;;;;;;;20.77;98.98;101661.53;143729;582;46008;-66
2023/12/26 14:40:44;;;;;;;17.37;5.70;;;;;;;20.73;98.97;101658.44;143731;885;47002;-66
2023/12/26 14:43:11;;;;;;;10.10;5.18;;;;;;;20.72;97.38;101662.22;143729;572;47010;-67
2023/12/26 14:45:37;;;;;;;12.82;7.53;;;;;;;20.70;98.28;101665.19;143731;591;46008;-65
2023/12/26 14:48:04;;;;;;;19.92;7.62;;;;;;;20.70;99.05;101669.81;143728;671;47009;-66
2023/12/26 14:50:30;;;;;;;13.48;7.68;;;;;;;20.68;100.00;101667.31;143729;905;47002;-66
2023/12/26 14:52:57;;;;;;;10.80;6.70;;;;;;;20.62;100.00;101668.31;143729;578;47010;-66
2023/12/26 14:55:23;;;;;;;11.52;6.90;;;;;;;20.56;100.00;101661.91;143730;567;46923;-65
2023/12/26 14:57:50;;;;;;;9.90;6.60;;;;;;;20.50;100.00;101671.06;143730;653;46006;-65
2023/12/26 15:00:16;;;;;;;13.48;6.82;;;;;;;20.41;100.00;101670.63;143733;616;46006;-64
2023/12/26 15:02:44;;;;;;;13.77;6.78;;;;;;;20.34;100.00;101667.19;143724;776;47010;-65
2023/12/26 15:05:11;;;;;;;13.25;7.80;;;;;;;20.25;100.00;101669.47;143722;677;47004;-65
2023/12/26 15:07:38;;;;;;;15.30;8.85;;;;;;;20.15;100.00;101664.63;143722;851;46006;-65
2023/12/26 15:10:05;;;;;;;16.40;9.48;;;;;;;20.08;100.00;101665.81;143725;597;47002;-65
2023/12/26 15:12:31;;;;;;;29.67;17.62;;;;;;;20.01;100.00;101676.06;143724;597;47008;-66
2023/12/26 15:14:57;;;;;;;29.90;17.67;;;;;;;19.91;100.00;101671.19;143721;594;47002;-64
2023/12/26 15:17:24;;;;;;;33.90;18.27;;;;;;;19.81;100.00;101672.56;143723;739;47006;-64
2023/12/26 15:19:50;;;;;;;28.75;15.32;;;;;;;19.76;100.00;101675.19;143726;610;46006;-67
2023/12/26 15:22:17;;;;;;;23.33;14.80;;;;;;;19.70;100.00;101685.13;143722;625;47008;-65
2023/12/26 15:24:43;;;;;;;26.87;14.90;;;;;;;19.61;100.00;101683.00;143719;593;47004;-66
2023/12/26 15:27:09;;;;;;;21.02;13.73;;;;;;;19.58;100.00;101678.03;143723;573;46006;-66
2023/12/26 15:29:36;;;;;;;21.87;13.48;;;;;;;19.54;100.00;101678.50;143723;595;47002;-66
2023/12/26 15:32:03;;;;;;;23.12;13.73;;;;;;;19.46;100.00;101692.44;143722;973;47008;-67
2023/12/26 15:34:29;;;;;;;28.02;15.90;;;;;;;19.32;100.00;101691.00;143721;981;47002;-66
2023/12/26 15:36:56;;;;;;;29.73;16.12;;;;;;;19.24;100.00;101694.91;143722;986;47006;-65
2023/12/26 15:39:22;;;;;;;30.42;18.08;;;;;;;19.19;100.00;101695.59;143725;986;47000;-66
2023/12/26 15:41:48;;;;;;;38.85;21.80;;;;;;;19.14;100.00;101702.81;143720;569;47004;-66
2023/12/26 15:44:15;;;;;;;41.33;26.58;;;;;;;19.04;100.00;101698.75;143721;626;47006;-67
2023/12/26 15:46:41;;;;;;;46.85;32.25;;;;;;;18.99;100.00;101701.31;143723;816;46006;-66
2023/12/26 15:49:07;;;;;;;44.90;33.45;;;;;;;18.94;100.00;101698.47;143723;963;47002;-66
2023/12/26 15:51:33;;;;;;;52.08;37.13;;;;;;;18.91;100.00;101707.91;143722;586;46008;-67
2023/12/26 15:54:00;;;;;;;58.40;37.20;;;;;;;18.87;100.00;101708.59;143719;594;47004;-65